Time;durP1;ratioP1;P1;durP2;ratioP2;P2;SDS_P1;SDS_P2;PMS_P1;PMS_P2;Temp;Humidity;BMP_temperature;BMP_pressure;BME280_temperature;BME280_humidity;BME280_pressure;Samples;Min_cycle;Max_cycle;Signal;HPM_P1;HPM_P2
2024/04/10 00:00:49;;;;;;;14.23;2.20;;;10.30;99.90;;;;;;5370181;26;20013;-77
2024/04/10 00:03:16;;;;;;;10.25;1.15;;;10.20;99.90;;;;;;5395122;26;19999;-77
2024/04/10 00:05:43;;;;;;;12.75;2.28;;;10.20;99.90;;;;;;5371574;26;20342;-78
2024/04/10 00:08:10;;;;;;;8.55;1.23;;;10.10;99.90;;;;;;5362244;26;20007;-78
2024/04/10 00:10:37;;;;;;;12.15;1.88;;;10.10;99.90;;;;;;5367347;26;19998;-77
2024/04/10 00:13:03;;;;;;;14.90;2.05;;;10.10;99.90;;;;;;5394615;26;20025;-77
2024/04/10 00:15:29;;;;;;;12.10;1.55;;;10.10;99.90;;;;;;5336897;26;20026;-77
2024/04/10 00:17:56;;;;;;;12.88;1.85;;;10.10;99.90;;;;;;5368314;26;21561;-77
2024/04/10 00:20:22;;;;;;;12.90;1.88;;;10.10;99.90;;;;;;5371121;26;20025;-78
2024/04/10 00:22:49;;;;;;;11.73;2.03;;;10.10;99.90;;;;;;5395234;26;20005;-78
2024/04/10 00:25:16;;;;;;;12.35;1.67;;;10.10;99.90;;;;;;5369828;26;20353;-78
2024/04/10 00:27:42;;;;;;;8.70;1.10;;;10.00;99.90;;;;;;5367838;26;19999;-78
2024/04/10 00:30:09;;;;;;;6.30;1.30;;;10.00;99.90;;;;;;5398532;26;20037;-77
2024/04/10 00:32:35;;;;;;;11.30;2.30;;;9.90;99.90;;;;;;5363832;26;20014;-78
2024/04/10 00:35:01;;;;;;;11.15;1.50;;;9.80;99.90;;;;;;5311284;26;20014;-77
2024/04/10 00:37:28;;;;;;;11.15;1.73;;;9.70;99.90;;;;;;5360475;26;20010;-76
2024/04/10 00:39:54;;;;;;;9.38;1.63;;;9.70;99.90;;;;;;5364963;26;20010;-76
2024/04/10 00:42:22;;;;;;;12.18;1.92;;;9.80;99.90;;;;;;5340062;26;20011;-76
2024/04/10 00:44:53;;;;;;;12.65;2.08;;;9.80;99.90;;;;;;5342364;26;20007;-77
2024/04/10 00:47:20;;;;;;;11.65;1.83;;;9.80;99.90;;;;;;5367125;26;20022;-77
2024/04/10 00:49:48;;;;;;;10.30;1.73;;;9.80;99.90;;;;;;5371741;26;19996;-77
2024/04/10 00:52:15;;;;;;;7.50;1.48;;;9.80;99.90;;;;;;5371223;26;20455;-77
2024/04/10 00:54:43;;;;;;;13.05;1.55;;;9.90;99.90;;;;;;5371311;26;20349;-78
2024/04/10 00:57:09;;;;;;;10.65;1.77;;;9.90;99.90;;;;;;5365264;26;20825;-77
2024/04/10 00:59:36;;;;;;;10.15;1.75;;;9.90;99.90;;;;;;5429498;26;20017;-77
2024/04/10 01:02:07;;;;;;;7.32;1.00;;;9.90;99.90;;;;;;5343981;26;20003;-76
2024/04/10 01:04:34;;;;;;;8.20;1.10;;;10.00;99.90;;;;;;5344843;26;20329;-76
2024/04/10 01:07:07;;;;;;;4.20;0.70;;;9.90;99.90;;;;;;5338186;26;20503;-77
2024/04/10 01:09:33;;;;;;;11.00;1.92;;;9.90;99.90;;;;;;5339328;26;20500;-76
2024/04/10 01:11:59;;;;;;;8.15;1.02;;;10.00;99.90;;;;;;5334357;26;20025;-77
2024/04/10 01:14:28;;;;;;;10.20;1.52;;;9.90;99.90;;;;;;5359940;26;20011;-78
2024/04/10 01:16:54;;;;;;;5.72;1.20;;;9.90;99.90;;;;;;5367815;26;20003;-77
2024/04/10 01:19:21;;;;;;;9.82;1.52;;;10.00;99.90;;;;;;5365943;26;20007;-77
2024/04/10 01:21:47;;;;;;;8.55;1.08;;;10.00;99.90;;;;;;5363009;26;20350;-77
2024/04/10 01:24:13;;;;;;;7.97;1.23;;;10.00;99.90;;;;;;5369882;26;20002;-77
2024/04/10 01:26:39;;;;;;;9.73;1.33;;;10.00;99.90;;;;;;5343275;26;20683;-77
2024/04/10 01:29:06;;;;;;;9.73;1.70;;;10.00;99.90;;;;;;5382127;26;20007;-79
2024/04/10 01:31:32;;;;;;;6.13;1.35;;;10.00;99.90;;;;;;5376003;26;20010;-78
2024/04/10 01:33:58;;;;;;;10.68;1.52;;;9.80;99.90;;;;;;5408482;26;20015;-77
2024/04/10 01:36:25;;;;;;;5.00;0.95;;;9.70;99.90;;;;;;5373923;26;20361;-78
2024/04/10 01:38:51;;;;;;;4.15;0.95;;;9.60;99.90;;;;;;5345716;26;19999;-77
2024/04/10 01:41:17;;;;;;;9.60;1.30;;;9.50;99.90;;;;;;5347580;26;20501;-77
2024/04/10 01:43:44;;;;;;;7.13;1.90;;;9.50;99.90;;;;;;5394581;26;20631;-78
2024/04/10 01:46:10;;;;;;;5.25;1.15;;;9.40;99.90;;;;;;5367420;26;20009;-79
2024/04/10 01:48:36;;;;;;;5.15;1.15;;;9.40;99.90;;;;;;5335247;26;19995;-77
2024/04/10 01:51:03;;;;;;;5.43;0.90;;;9.30;99.90;;;;;;5335043;26;20025;-77
2024/04/10 01:53:29;;;;;;;8.50;1.60;;;9.30;99.90;;;;;;5363307;26;20434;-77
2024/04/10 01:55:56;;;;;;;3.55;1.08;;;9.30;99.90;;;;;;5341136;26;20587;-77
2024/04/10 01:58:22;;;;;;;3.97;1.17;;;9.30;99.90;;;;;;5402421;26;20003;-77
2024/04/10 02:00:48;;;;;;;3.08;0.70;;;9.30;99.90;;;;;;5371911;26;19995;-77
2024/04/10 02:03:15;;;;;;;4.15;0.90;;;9.30;99.90;;;;;;5334516;26;20017;-77
2024/04/10 02:05:41;;;;;;;6.15;0.90;;;9.30;99.90;;;;;;5341294;26;20003;-77
2024/04/10 02:08:07;;;;;;;4.25;0.90;;;9.30;99.90;;;;;;5338974;26;20639;-77
2024/04/10 02:10:33;;;;;;;7.20;1.33;;;9.30;99.90;;;;;;5339216;26;20022;-76
2024/04/10 02:13:00;;;;;;;6.80;0.90;;;9.30;99.90;;;;;;5337728;26;20005;-76
2024/04/10 02:15:26;;;;;;;4.18;1.20;;;9.30;99.90;;;;;;5364443;26;19996;-76
2024/04/10 02:17:54;;;;;;;6.75;1.38;;;9.40;99.90;;;;;;5394477;26;20004;-77
2024/04/10 02:20:21;;;;;;;7.97;1.63;;;9.40;99.90;;;;;;5366400;26;20500;-77
2024/04/10 02:22:48;;;;;;;5.15;1.65;;;9.40;99.90;;;;;;5372257;26;20361;-77
2024/04/10 02:25:14;;;;;;;7.03;1.33;;;9.40;99.90;;;;;;5367004;26;20017;-77
2024/04/10 02:27:41;;;;;;;5.03;1.05;;;9.40;99.90;;;;;;5403423;26;20045;-77
2024/04/10 02:30:10;;;;;;;9.52;1.92;;;9.40;99.90;;;;;;5376009;26;20019;-76
2024/04/10 02:32:36;;;;;;;9.38;1.52;;;9.40;99.90;;;;;;5368199;26;20007;-77
2024/04/10 02:35:03;;;;;;;8.15;1.75;;;9.40;99.90;;;;;;5340653;26;20479;-77
2024/04/10 02:37:29;;;;;;;5.13;1.13;;;9.40;99.90;;;;;;5403488;26;20003;-77
2024/04/10 02:39:57;;;;;;;5.13;1.33;;;9.40;99.90;;;;;;5366440;26;19996;-77
2024/04/10 02:42:23;;;;;;;4.65;1.30;;;9.40;99.90;;;;;;5363705;26;20011;-77
2024/04/10 02:44:51;;;;;;;5.32;1.10;;;9.40;99.90;;;;;;5362252;26;20003;-77
2024/04/10 02:47:19;;;;;;;8.02;1.52;;;9.50;99.90;;;;;;5364946;26;20014;-77
2024/04/10 02:49:45;;;;;;;5.53;1.33;;;9.50;99.90;;;;;;5363476;26;21344;-77
2024/04/10 02:52:11;;;;;;;10.27;2.58;;;9.50;99.90;;;;;;5334111;26;20402;-76
2024/04/10 02:54:38;;;;;;;9.77;2.75;;;9.50;99.90;;;;;;5365789;26;20080;-77
2024/04/10 02:57:05;;;;;;;6.97;1.60;;;9.50;99.90;;;;;;5335714;26;20420;-77
2024/04/10 02:59:31;;;;;;;7.05;1.67;;;9.50;99.90;;;;;;5339599;26;19995;-77
2024/04/10 03:01:58;;;;;;;8.40;1.60;;;9.50;99.90;;;;;;5365213;26;20639;-77
2024/04/10 03:04:24;;;;;;;7.18;1.38;;;9.60;99.90;;;;;;5369425;26;20010;-76
2024/04/10 03:06:52;;;;;;;5.38;1.42;;;9.60;99.90;;;;;;5370020;26;20007;-76
2024/04/10 03:09:21;;;;;;;7.65;1.90;;;9.60;99.90;;;;;;5367729;26;20003;-76
2024/04/10 03:11:47;;;;;;;11.60;1.85;;;9.60;99.90;;;;;;5338121;26;19999;-76
2024/04/10 03:14:14;;;;;;;7.22;1.77;;;9.60;99.90;;;;;;5333880;26;20336;-77
2024/04/10 03:16:40;;;;;;;6.07;1.30;;;9.60;99.90;;;;;;5336230;26;20678;-77
2024/04/10 03:19:06;;;;;;;8.70;2.00;;;9.70;99.90;;;;;;5403162;26;19999;-76
2024/04/10 03:21:33;;;;;;;10.30;2.47;;;9.70;99.90;;;;;;5363894;26;20003;-77
2024/04/10 03:23:59;;;;;;;10.48;2.20;;;9.70;99.90;;;;;;5306535;26;20012;-76
2024/04/10 03:26:25;;;;;;;9.02;2.55;;;9.70;99.90;;;;;;5367107;26;20012;-76
2024/04/10 03:28:52;;;;;;;7.85;1.90;;;9.70;99.90;;;;;;5402058;26;20010;-77
2024/04/10 03:31:18;;;;;;;10.63;2.13;;;9.70;99.90;;;;;;5398578;26;20017;-76
2024/04/10 03:33:44;;;;;;;7.90;1.70;;;9.70;99.90;;;;;;5397059;26;20446;-76
2024/04/10 03:36:11;;;;;;;7.95;1.80;;;9.70;99.90;;;;;;5398024;26;20583;-76
2024/04/10 03:38:37;;;;;;;8.48;2.10;;;9.60;99.90;;;;;;5310593;26;20340;-77
2024/04/10 03:41:03;;;;;;;10.93;2.40;;;9.60;99.90;;;;;;5363523;26;20021;-76
2024/04/10 03:43:30;;;;;;;6.50;1.38;;;9.70;99.90;;;;;;5391277;26;20012;-77
2024/04/10 03:45:58;;;;;;;9.13;1.80;;;9.70;99.90;;;;;;5398843;26;20537;-77
2024/04/10 03:48:24;;;;;;;8.25;1.38;;;9.70;99.90;;;;;;5370181;26;20042;-76
2024/04/10 03:50:58;;;;;;;6.82;1.52;;;9.70;99.90;;;;;;5370985;26;20025;-77
2024/04/10 03:53:24;;;;;;;7.90;1.60;;;9.70;99.90;;;;;;5372640;26;20463;-77
2024/04/10 03:55:54;;;;;;;7.35;2.15;;;9.70;99.90;;;;;;5368241;26;20537;-77
2024/04/10 03:58:22;;;;;;;5.25;1.42;;;9.70;99.90;;;;;;5365351;26;20012;-77
2024/04/10 04:00:50;;;;;;;7.60;1.20;;;9.70;99.90;;;;;;5359878;26;20013;-76
2024/04/10 04:03:24;;;;;;;6.72;1.60;;;9.70;99.90;;;;;;5388167;26;20462;-77
2024/04/10 04:05:51;;;;;;;8.57;1.52;;;9.70;99.90;;;;;;5359834;26;20013;-77
2024/04/10 04:08:18;;;;;;;7.05;1.45;;;9.70;99.90;;;;;;5367138;26;20018;-77
2024/04/10 04:10:44;;;;;;;8.05;1.60;;;9.70;99.90;;;;;;5306364;26;20017;-77
2024/04/10 04:13:11;;;;;;;9.13;1.27;;;9.70;99.90;;;;;;5395515;26;20005;-76
2024/04/10 04:15:40;;;;;;;7.65;1.90;;;9.70;99.90;;;;;;5334851;26;20034;-77
2024/04/10 04:18:07;;;;;;;6.70;1.20;;;9.70;99.90;;;;;;5338968;26;20009;-77
2024/04/10 04:20:33;;;;;;;10.30;2.20;;;9.70;99.90;;;;;;5334632;26;20464;-77
2024/04/10 04:23:00;;;;;;;7.55;1.52;;;9.70;99.90;;;;;;5337297;26;20364;-77
2024/04/10 04:25:26;;;;;;;7.60;1.92;;;9.70;99.90;;;;;;5394275;26;20452;-78
2024/04/10 04:27:53;;;;;;;7.93;2.00;;;9.70;99.90;;;;;;5391194;26;20035;-77
2024/04/10 04:30:19;;;;;;;12.07;2.20;;;9.70;99.90;;;;;;5395464;26;20000;-77
2024/04/10 04:32:46;;;;;;;8.30;1.77;;;9.70;99.90;;;;;;5391769;26;20097;-77
2024/04/10 04:35:12;;;;;;;12.75;1.70;;;9.70;99.90;;;;;;5362628;26;19999;-77
2024/04/10 04:37:38;;;;;;;7.88;1.67;;;9.70;99.90;;;;;;5397599;26;20339;-77
2024/04/10 04:40:10;;;;;;;7.93;1.85;;;9.60;99.90;;;;;;5335852;26;20022;-77
2024/04/10 04:42:37;;;;;;;8.57;1.45;;;9.60;99.90;;;;;;5334517;26;19999;-77
2024/04/10 04:45:04;;;;;;;11.30;2.20;;;9.60;99.90;;;;;;5365027;26;20021;-77
2024/04/10 04:47:30;;;;;;;13.15;2.17;;;9.60;99.90;;;;;;5332487;26;20013;-77
2024/04/10 04:49:57;;;;;;;9.55;1.60;;;9.50;99.90;;;;;;5370012;26;20000;-77
2024/04/10 04:52:23;;;;;;;10.32;2.17;;;9.50;99.90;;;;;;5333030;26;20004;-77
2024/04/10 04:54:50;;;;;;;7.00;1.40;;;9.50;99.90;;;;;;5362252;26;19999;-77
2024/04/10 04:57:16;;;;;;;7.45;1.63;;;9.50;99.90;;;;;;5369168;26;20008;-77
2024/04/10 04:59:42;;;;;;;6.07;1.27;;;9.50;99.90;;;;;;5364519;26;20014;-77
2024/04/10 05:02:09;;;;;;;9.00;1.73;;;9.50;99.90;;;;;;5335408;26;20007;-77
2024/04/10 05:04:54;;;;;;;8.77;1.60;;;9.50;99.90;;;;;;5427231;26;20000;-78
2024/04/10 05:07:21;;;;;;;7.63;1.48;;;9.50;99.90;;;;;;5365439;26;20003;-76
2024/04/10 05:09:49;;;;;;;10.00;1.77;;;9.50;99.90;;;;;;5429136;26;20014;-78
2024/04/10 05:12:16;;;;;;;11.38;1.50;;;9.50;99.90;;;;;;5366234;26;20014;-77
2024/04/10 05:14:50;;;;;;;7.88;1.40;;;9.50;99.90;;;;;;5335153;26;20018;-77
2024/04/10 05:17:17;;;;;;;6.47;1.05;;;9.50;99.90;;;;;;5396990;26;19996;-78
2024/04/10 05:19:44;;;;;;;8.32;2.20;;;9.50;99.90;;;;;;5398355;26;20021;-77
2024/04/10 05:22:11;;;;;;;10.25;1.73;;;9.50;99.90;;;;;;5367885;26;20041;-77
2024/04/10 05:24:37;;;;;;;6.43;1.13;;;9.50;99.90;;;;;;5334715;26;20011;-77
2024/04/10 05:27:05;;;;;;;7.53;1.00;;;9.50;99.90;;;;;;5366797;26;20012;-77
2024/04/10 05:29:32;;;;;;;7.30;1.23;;;9.50;99.90;;;;;;5302609;26;20000;-77
2024/04/10 05:31:59;;;;;;;7.05;1.40;;;9.60;99.90;;;;;;5331509;26;20007;-77
2024/04/10 05:34:25;;;;;;;8.98;1.27;;;9.60;99.90;;;;;;5364979;26;19999;-77
2024/04/10 05:36:53;;;;;;;5.18;1.05;;;9.70;99.90;;;;;;5309859;26;19996;-77
2024/04/10 05:39:21;;;;;;;3.60;1.00;;;9.70;99.90;;;;;;5365449;26;20446;-77
2024/04/10 05:41:48;;;;;;;6.82;1.20;;;9.70;99.90;;;;;;5362201;26;20361;-77
2024/04/10 05:44:14;;;;;;;8.88;1.00;;;9.70;99.90;;;;;;5355993;26;20571;-77
2024/04/10 05:46:41;;;;;;;4.60;0.85;;;9.70;99.90;;;;;;5390110;26;20008;-77
2024/04/10 05:49:09;;;;;;;6.32;1.10;;;9.70;99.90;;;;;;5367974;26;20017;-77
2024/04/10 05:51:36;;;;;;;6.38;1.33;;;9.70;99.90;;;;;;5393167;26;20795;-77
2024/04/10 05:54:03;;;;;;;3.97;0.93;;;9.80;99.90;;;;;;5330389;26;19999;-77
2024/04/10 05:56:29;;;;;;;3.88;0.80;;;9.80;99.90;;;;;;5395287;26;20003;-77
2024/04/10 05:58:56;;;;;;;6.45;1.38;;;9.80;99.90;;;;;;5395641;26;20030;-78
2024/04/10 06:01:22;;;;;;;7.07;1.20;;;9.80;99.90;;;;;;5361779;26;20352;-77
2024/04/10 06:03:51;;;;;;;7.70;1.52;;;9.80;99.90;;;;;;5360169;26;19995;-77
2024/04/10 06:06:17;;;;;;;7.20;1.40;;;9.90;99.90;;;;;;5363794;26;20342;-77
2024/04/10 06:08:44;;;;;;;9.65;1.83;;;9.90;99.90;;;;;;5369138;26;21055;-77
2024/04/10 06:11:11;;;;;;;6.53;1.60;;;9.90;99.90;;;;;;5395595;26;19999;-77
2024/04/10 06:13:37;;;;;;;9.10;1.60;;;10.00;99.90;;;;;;5394823;26;20010;-77
2024/04/10 06:16:05;;;;;;;10.38;1.75;;;10.00;99.90;;;;;;5303410;26;20007;-76
2024/04/10 06:18:32;;;;;;;8.65;1.38;;;10.10;99.90;;;;;;5361707;26;20011;-76
2024/04/10 06:20:59;;;;;;;7.03;0.90;;;10.20;99.90;;;;;;5396266;26;20360;-76
2024/04/10 06:23:27;;;;;;;5.70;1.42;;;10.20;99.90;;;;;;5332206;26;20014;-76
2024/04/10 06:25:54;;;;;;;5.95;1.45;;;10.30;99.90;;;;;;5420871;26;20103;-76
2024/04/10 06:28:21;;;;;;;8.25;1.40;;;10.40;99.90;;;;;;5310475;26;20798;-76
2024/04/10 06:30:55;;;;;;;8.15;1.52;;;10.40;99.90;;;;;;5364905;26;20013;-77
2024/04/10 06:33:21;;;;;;;10.95;1.58;;;10.50;99.90;;;;;;5340532;26;20346;-77
2024/04/10 06:35:48;;;;;;;7.88;1.48;;;10.60;99.90;;;;;;5371449;26;20011;-77
2024/04/10 06:38:14;;;;;;;7.88;2.05;;;10.60;99.90;;;;;;5389761;26;20003;-77
2024/04/10 06:40:42;;;;;;;13.82;1.85;;;10.70;99.90;;;;;;5334107;26;20000;-77
2024/04/10 06:43:09;;;;;;;8.80;1.63;;;10.80;99.90;;;;;;5393713;26;20539;-76
2024/04/10 06:45:36;;;;;;;10.05;1.88;;;10.80;99.90;;;;;;5363754;26;20000;-77
2024/04/10 06:48:03;;;;;;;9.45;1.42;;;10.80;99.90;;;;;;5365963;26;20010;-76
2024/04/10 06:50:30;;;;;;;6.45;1.17;;;10.90;99.90;;;;;;5335176;26;20450;-78
2024/04/10 06:52:56;;;;;;;10.45;2.17;;;10.90;99.90;;;;;;5333097;26;20011;-77
2024/04/10 06:55:22;;;;;;;9.68;1.00;;;11.00;99.90;;;;;;5363907;26;20000;-77
2024/04/10 06:57:51;;;;;;;6.85;1.67;;;11.00;99.90;;;;;;5337290;26;20014;-78
2024/04/10 07:00:18;;;;;;;11.00;1.63;;;11.00;99.90;;;;;;5368070;26;20007;-78
2024/04/10 07:02:44;;;;;;;6.85;1.50;;;11.10;99.90;;;;;;5368294;26;20017;-77
2024/04/10 07:05:10;;;;;;;8.65;1.42;;;11.10;99.90;;;;;;5366654;26;20018;-76
2024/04/10 07:07:38;;;;;;;9.57;1.70;;;11.10;99.90;;;;;;5335588;26;20460;-77
2024/04/10 07:10:05;;;;;;;12.38;2.03;;;11.20;99.90;;;;;;5345776;26;20450;-76
2024/04/10 07:12:32;;;;;;;9.30;2.20;;;11.20;99.90;;;;;;5340311;26;20025;-76
2024/04/10 07:14:59;;;;;;;10.75;2.28;;;11.40;99.90;;;;;;5389918;26;19999;-76
2024/04/10 07:17:25;;;;;;;9.38;2.67;;;11.50;99.90;;;;;;5344707;26;20000;-78
2024/04/10 07:19:52;;;;;;;13.65;2.70;;;11.60;99.90;;;;;;5343358;26;20010;-79
2024/04/10 07:22:18;;;;;;;8.80;1.40;;;11.70;99.90;;;;;;5370813;26;20003;-78
2024/04/10 07:24:44;;;;;;;9.70;1.90;;;11.80;99.90;;;;;;5336076;26;20030;-80
2024/04/10 07:27:11;;;;;;;7.20;2.10;;;11.90;99.90;;;;;;5405058;26;20463;-79
2024/04/10 07:29:37;;;;;;;10.48;2.47;;;12.00;99.90;;;;;;5410202;26;20025;-81
2024/04/10 07:32:03;;;;;;;8.77;1.80;;;12.20;99.90;;;;;;5368944;26;20003;-79
2024/04/10 07:34:30;;;;;;;4.25;1.17;;;12.20;99.90;;;;;;5395077;26;20025;-80
2024/04/10 07:36:56;;;;;;;9.20;1.83;;;12.40;99.90;;;;;;5369947;26;20022;-80
2024/04/10 07:39:23;;;;;;;9.13;1.27;;;12.40;99.90;;;;;;5403798;26;20019;-79
2024/04/10 07:41:49;;;;;;;5.25;1.13;;;12.30;99.90;;;;;;5372900;26;20369;-80
2024/04/10 07:44:16;;;;;;;6.28;1.50;;;12.30;99.90;;;;;;5343809;26;20003;-80
2024/04/10 07:46:44;;;;;;;15.90;2.10;;;12.30;99.90;;;;;;5341298;26;20016;-81
2024/04/10 07:49:11;;;;;;;8.15;2.03;;;12.40;99.90;;;;;;5400623;26;20002;-82
2024/04/10 07:51:37;;;;;;;11.73;1.75;;;12.50;99.90;;;;;;5377878;26;20002;-79
2024/04/10 07:54:03;;;;;;;14.15;2.08;;;12.60;99.90;;;;;;5372974;26;20010;-82
2024/04/10 07:56:30;;;;;;;8.23;1.05;;;12.80;99.90;;;;;;5347616;26;20363;-86
2024/04/10 07:58:56;;;;;;;9.68;1.67;;;12.80;99.90;;;;;;5402360;26;19999;-82
2024/04/10 08:01:22;;;;;;;7.88;1.90;;;13.00;99.90;;;;;;5342357;26;20011;-83
2024/04/10 08:03:50;;;;;;;6.80;1.25;;;13.10;99.90;;;;;;5344969;26;20007;-82
2024/04/10 08:06:16;;;;;;;8.77;1.75;;;13.20;99.90;;;;;;5369790;26;20585;-78
2024/04/10 08:08:43;;;;;;;12.57;1.92;;;13.40;99.90;;;;;;5335271;26;20515;-80
2024/04/10 08:11:17;;;;;;;5.93;1.33;;;13.50;99.90;;;;;;5371640;26;20029;-80
2024/04/10 08:13:43;;;;;;;10.77;3.42;;;13.60;99.90;;;;;;5395837;26;20372;-76
2024/04/10 08:16:13;;;;;;;16.63;2.40;;;13.80;99.90;;;;;;5359293;26;20011;-78
2024/04/10 08:18:40;;;;;;;9.13;1.63;;;13.90;99.90;;;;;;5333502;26;20269;-82
2024/04/10 08:21:13;;;;;;;10.18;1.60;;;14.00;99.90;;;;;;5428610;26;20009;-76
2024/04/10 08:23:41;;;;;;;11.40;1.95;;;14.10;99.90;;;;;;5334964;26;19999;-81
2024/04/10 08:26:18;;;;;;;10.05;1.45;;;14.20;99.90;;;;;;5425329;26;20433;-79
2024/04/10 08:28:50;;;;;;;7.53;1.27;;;14.20;99.90;;;;;;5314340;26;20022;-81
2024/04/10 08:31:23;;;;;;;12.60;1.77;;;14.20;99.90;;;;;;5329208;26;20010;-78
2024/04/10 08:33:51;;;;;;;10.20;1.95;;;14.20;99.90;;;;;;5364199;26;20006;-79
2024/04/10 08:36:19;;;;;;;13.05;2.35;;;14.30;99.90;;;;;;5303371;26;19995;-78
2024/04/10 08:38:46;;;;;;;11.20;1.70;;;14.30;99.90;;;;;;5393001;26;20147;-77
2024/04/10 08:41:12;;;;;;;13.38;2.60;;;14.30;99.90;;;;;;5327749;26;19996;-77
2024/04/10 08:43:44;;;;;;;8.57;1.55;;;14.30;99.90;;;;;;5361440;26;20026;-80
2024/04/10 08:46:12;;;;;;;6.90;1.00;;;14.30;99.90;;;;;;5335201;26;20463;-80
2024/04/10 08:48:40;;;;;;;9.57;1.25;;;14.20;99.90;;;;;;5422375;26;20007;-77
2024/04/10 08:51:12;;;;;;;7.63;2.00;;;14.30;99.90;;;;;;5360947;26;20000;-82
2024/04/10 08:53:40;;;;;;;;;;;14.40;99.90;;;;;;5368405;26;20003;-77
2024/04/10 08:56:06;;;;;;;9.10;1.35;;;14.50;99.90;;;;;;5365878;26;19933;-77
2024/04/10 08:58:32;;;;;;;8.90;1.63;;;14.70;99.90;;;;;;5332619;26;20004;-78
2024/04/10 09:00:59;;;;;;;8.32;1.40;;;14.90;99.90;;;;;;5390546;26;20009;-79
2024/04/10 09:03:25;;;;;;;9.52;1.50;;;15.10;99.90;;;;;;5423846;26;20042;-80
2024/04/10 09:05:52;;;;;;;11.70;2.22;;;15.20;99.90;;;;;;5307262;26;19999;-78
2024/04/10 09:08:18;;;;;;;8.75;1.35;;;15.40;99.90;;;;;;5332555;26;20007;-79
2024/04/10 09:10:55;;;;;;;8.07;1.42;;;15.50;99.90;;;;;;5359040;26;20000;-80
2024/04/10 09:13:22;;;;;;;5.85;1.30;;;15.60;99.90;;;;;;5397129;26;19995;-81
2024/04/10 09:15:56;;;;;;;6.15;1.10;;;15.60;99.90;;;;;;5360597;26;20006;-80
2024/04/10 09:18:23;;;;;;;7.00;1.40;;;15.70;99.90;;;;;;5336960;26;20010;-77
2024/04/10 09:22:20;;;;;;;7.20;1.38;;;15.60;99.90;;;;;;5528618;25;20868;-82
2024/04/10 09:24:47;;;;;;;8.30;1.05;;;15.30;99.90;;;;;;5416358;25;20024;-83
2024/04/10 09:27:14;;;;;;;7.20;1.15;;;15.20;99.90;;;;;;5444643;26;20019;-81
2024/04/10 09:29:40;;;;;;;6.80;1.17;;;15.00;99.90;;;;;;5477118;25;20036;-80
2024/04/10 09:32:08;;;;;;;5.95;0.95;;;15.00;99.90;;;;;;5474095;26;20013;-83
2024/04/10 09:34:34;;;;;;;12.95;1.65;;;15.00;99.90;;;;;;5441543;25;20459;-80
2024/04/10 09:37:01;;;;;;;7.80;0.98;;;15.30;99.90;;;;;;5444442;26;19998;-79
2024/04/10 09:39:28;;;;;;;10.32;1.25;;;15.40;99.90;;;;;;5445706;26;20692;-80
2024/04/10 09:41:58;;;;;;;7.35;1.08;;;15.50;99.90;;;;;;5474386;25;20082;-81
2024/04/10 09:44:36;;;;;;;5.32;0.90;;;15.70;99.90;;;;;;5444631;26;20024;-83
2024/04/10 09:47:04;;;;;;;8.20;1.50;;;15.80;99.90;;;;;;5475607;26;19998;-81
2024/04/10 09:49:49;;;;;;;6.00;1.10;;;15.90;99.90;;;;;;5449877;26;20861;-81
2024/04/10 09:52:16;;;;;;;8.23;1.33;;;16.00;99.90;;;;;;5472713;26;20006;-83
2024/04/10 09:54:44;;;;;;;8.07;1.17;;;15.80;99.90;;;;;;5442782;26;20016;-80
2024/04/10 09:57:12;;;;;;;5.25;0.93;;;15.70;99.90;;;;;;5475140;25;20008;-81
2024/04/10 09:59:38;;;;;;;4.70;0.93;;;15.60;99.90;;;;;;5478802;25;20013;-81
2024/04/10 10:02:07;;;;;;;9.30;1.38;;;15.60;99.90;;;;;;5443671;25;20023;-81
2024/04/10 10:04:38;;;;;;;4.22;0.88;;;15.60;99.90;;;;;;5473162;25;20020;-80
2024/04/10 10:07:04;;;;;;;6.72;1.25;;;15.60;99.90;;;;;;5475259;25;20002;-81
2024/04/10 10:09:31;;;;;;;4.45;1.08;;;15.50;99.90;;;;;;5477626;25;20714;-79
2024/04/10 10:12:01;;;;;;;4.40;0.80;;;15.60;99.90;;;;;;5470450;25;20003;-81
2024/04/10 10:14:28;;;;;;;6.03;1.10;;;15.80;99.90;;;;;;5473235;25;20002;-78
2024/04/10 10:17:14;;;;;;;7.50;1.27;;;15.90;99.90;;;;;;5414671;26;20012;-80
2024/04/10 10:19:41;;;;;;;3.10;0.70;;;15.90;99.90;;;;;;5474511;26;20016;-81
2024/04/10 10:22:08;;;;;;;5.90;0.90;;;15.90;99.90;;;;;;5471056;25;20042;-80
2024/04/10 10:24:34;;;;;;;4.28;0.80;;;16.10;99.90;;;;;;5437888;26;19998;-81
2024/04/10 10:27:02;;;;;;;4.20;0.60;;;16.50;99.90;;;;;;5471077;25;20002;-79
2024/04/10 10:29:30;;;;;;;4.43;0.90;;;17.00;99.90;;;;;;5417137;26;20008;-79
2024/04/10 10:32:07;;;;;;;5.75;0.68;;;17.50;99.90;;;;;;5467602;25;20325;-79
2024/04/10 10:34:33;;;;;;;5.18;0.80;;;17.60;99.90;;;;;;5460565;26;20016;-79
2024/04/10 10:37:06;;;;;;;6.28;0.60;;;17.40;99.90;;;;;;5400870;26;19998;-84
2024/04/10 10:39:33;;;;;;;;;;;17.40;99.90;;;;;;5458930;26;20433;-81
2024/04/10 10:42:00;;;;;;;6.22;1.13;;;17.60;99.90;;;;;;5397014;26;19932;-82
2024/04/10 10:44:27;;;;;;;4.50;1.08;;;17.90;99.90;;;;;;5423492;26;20002;-81
2024/04/10 10:46:57;;;;;;;6.97;1.10;;;18.30;99.90;;;;;;5479906;26;20459;-79
2024/04/10 10:49:25;;;;;;;5.43;0.60;;;18.50;99.90;;;;;;5423781;26;20466;-83
2024/04/10 10:51:56;;;;;;;3.33;0.60;;;18.80;99.90;;;;;;5450829;26;20054;-82
2024/04/10 10:54:23;;;;;;;4.82;0.70;;;19.20;99.90;;;;;;5422653;26;20020;-81
2024/04/10 10:56:49;;;;;;;6.97;1.67;;;19.60;99.90;;;;;;5423497;26;20021;-78
2024/04/10 10:59:16;;;;;;;8.07;1.65;;;19.80;99.90;;;;;;5485914;25;20547;-83
2024/04/10 11:01:42;;;;;;;5.10;1.25;;;19.70;99.90;;;;;;5424332;26;19999;-82
2024/04/10 11:04:16;;;;;;;3.65;0.80;;;19.70;99.00;;;;;;5453102;26;20010;-80
2024/04/10 11:06:43;;;;;;;5.20;0.90;;;19.40;98.60;;;;;;5424575;26;20002;-82
2024/04/10 11:09:18;;;;;;;2.47;0.50;;;19.00;98.30;;;;;;5427839;26;20447;-81
2024/04/10 11:11:45;;;;;;;3.80;0.60;;;18.70;98.50;;;;;;5391177;26;20594;-81
2024/04/10 11:14:14;;;;;;;4.00;0.70;;;18.80;98.60;;;;;;5481957;26;20008;-80
2024/04/10 11:16:41;;;;;;;3.58;0.50;;;19.10;98.50;;;;;;5476046;25;19998;-79
2024/04/10 11:19:08;;;;;;;4.78;0.63;;;19.30;97.90;;;;;;5428335;26;20008;-79
2024/04/10 11:21:35;;;;;;;4.47;0.80;;;19.50;97.50;;;;;;5422762;26;20464;-79
2024/04/10 11:24:01;;;;;;;3.28;0.50;;;19.80;96.10;;;;;;5455260;26;20004;-79
2024/04/10 11:26:27;;;;;;;3.55;0.40;;;19.60;96.10;;;;;;5422831;26;20020;-80
2024/04/10 11:28:55;;;;;;;3.78;0.43;;;19.20;95.80;;;;;;5396498;26;20350;-80
2024/04/10 11:31:22;;;;;;;2.67;0.30;;;18.90;96.10;;;;;;5399574;26;19995;-78
2024/04/10 11:33:49;;;;;;;3.92;0.60;;;19.40;95.40;;;;;;5398527;26;20026;-79
2024/04/10 11:36:15;;;;;;;2.42;0.40;;;19.70;95.10;;;;;;5453280;26;20328;-78
2024/04/10 11:38:43;;;;;;;5.03;0.60;;;19.40;94.70;;;;;;5453698;26;20035;-82
2024/04/10 11:41:10;;;;;;;3.85;0.60;;;19.00;94.90;;;;;;5396151;26;20002;-79
2024/04/10 11:43:36;;;;;;;4.70;0.55;;;18.70;94.80;;;;;;5392632;26;20039;-79
2024/04/10 11:46:03;;;;;;;7.28;1.73;;;18.70;95.30;;;;;;5427869;26;20009;-79
2024/04/10 11:48:29;;;;;;;4.57;0.60;;;19.30;94.90;;;;;;5454754;26;19994;-77
2024/04/10 11:50:57;;;;;;;3.45;0.57;;;19.70;94.40;;;;;;5428976;26;20009;-78
2024/04/10 11:53:23;;;;;;;3.92;0.40;;;20.20;94.30;;;;;;5456502;26;20006;-77
2024/04/10 11:55:50;;;;;;;2.20;0.40;;;20.10;93.20;;;;;;5455944;26;20068;-80
2024/04/10 11:58:17;;;;;;;3.33;0.57;;;20.50;93.50;;;;;;5458427;26;20002;-78
2024/04/10 12:00:43;;;;;;;3.90;0.90;;;20.80;92.10;;;;;;5455843;26;20014;-77
2024/04/10 12:03:10;;;;;;;6.13;0.80;;;21.10;92.00;;;;;;5424220;26;20010;-77
2024/04/10 12:05:36;;;;;;;6.10;2.60;;;21.80;91.40;;;;;;5420860;26;20017;-77
2024/04/10 12:08:04;;;;;;;2.30;0.63;;;22.40;90.50;;;;;;5457305;26;19994;-81
2024/04/10 12:10:32;;;;;;;4.80;1.38;;;23.00;90.20;;;;;;5428201;26;20006;-77
2024/04/10 12:12:59;;;;;;;3.67;0.63;;;22.80;88.70;;;;;;5455152;26;20002;-77
2024/04/10 12:15:25;;;;;;;4.25;0.60;;;23.10;87.20;;;;;;5397625;26;20801;-79
2024/04/10 12:17:52;;;;;;;5.75;0.68;;;23.60;86.00;;;;;;5453904;26;21066;-79
2024/04/10 12:20:18;;;;;;;3.38;0.80;;;23.90;84.10;;;;;;5449020;26;20003;-80
2024/04/10 12:22:45;;;;;;;7.63;3.05;;;24.30;82.60;;;;;;5453192;26;20029;-80
2024/04/10 12:25:12;;;;;;;5.60;2.60;;;24.70;80.00;;;;;;5392814;26;20024;-80
2024/04/10 12:27:38;;;;;;;4.07;0.60;;;25.20;78.40;;;;;;5458094;26;20014;-79
2024/04/10 12:30:05;;;;;;;1.52;0.40;;;25.70;77.30;;;;;;5455338;26;20007;-79
2024/04/10 12:32:31;;;;;;;3.08;0.60;;;26.10;74.50;;;;;;5422818;26;20013;-79
2024/04/10 12:40:28;;;;;;;3.88;0.60;;;27.10;68.40;;;;;;5510917;25;19999;-78
2024/04/10 12:42:55;;;;;;;2.50;0.75;;;27.20;62.70;;;;;;5395464;26;19998;-79
2024/04/10 12:45:22;;;;;;;3.20;0.50;;;27.00;62.50;;;;;;5486469;26;20944;-79
2024/04/10 12:47:48;;;;;;;3.63;0.50;;;27.10;63.00;;;;;;5425792;26;20007;-78
2024/04/10 12:50:15;;;;;;;3.95;0.57;;;27.30;61.30;;;;;;5453140;26;20028;-77
2024/04/10 12:52:41;;;;;;;3.55;0.40;;;27.60;60.30;;;;;;5398433;26;20020;-77
2024/04/10 12:55:10;;;;;;;2.65;0.50;;;27.80;60.20;;;;;;5456143;26;20457;-77
2024/04/10 12:57:36;;;;;;;3.10;0.80;;;28.10;58.60;;;;;;5425675;26;20356;-76